Time;durP1;ratioP1;P1;durP2;ratioP2;P2;SDS_P1;SDS_P2;PMS_P1;PMS_P2;Temp;Humidity;BMP_temperature;BMP_pressure;BME280_temperature;BME280_humidity;BME280_pressure;Samples;Min_cycle;Max_cycle;Signal;HPM_P1;HPM_P2
2023/04/30 00:02:20;;;;;;;0.30;0.00;;;;;;;5.17;63.93;100678.03;4987723;28;20046;-69
2023/04/30 00:04:48;;;;;;;0.52;0.10;;;;;;;5.18;64.06;100674.59;4987600;28;20042;-69
2023/04/30 00:07:15;;;;;;;0.28;0.05;;;;;;;5.18;63.86;100669.41;4988817;28;20495;-69
2023/04/30 00:09:42;;;;;;;0.00;0.00;;;;;;;5.20;63.84;100679.75;4985611;28;20400;-70
2023/04/30 00:12:09;;;;;;;0.10;0.03;;;;;;;5.21;63.99;100680.63;4985498;28;20411;-69
2023/04/30 00:14:36;;;;;;;0.00;0.00;;;;;;;5.22;63.83;100693.59;4989610;28;20050;-69
2023/04/30 00:17:03;;;;;;;0.20;0.10;;;;;;;5.22;63.77;100691.00;4985330;28;20495;-69
2023/04/30 00:19:30;;;;;;;0.20;0.00;;;;;;;5.22;63.81;100692.72;4986759;28;20054;-70
2023/04/30 00:22:00;;;;;;;0.10;0.10;;;;;;;5.23;63.81;100697.03;4984117;28;20057;-69
2023/04/30 00:24:27;;;;;;;0.00;0.00;;;;;;;5.23;63.71;100703.06;4988898;28;20083;-69
2023/04/30 00:26:54;;;;;;;1.42;0.10;;;;;;;5.23;63.77;100697.03;4986694;28;20050;-70
2023/04/30 00:29:21;;;;;;;0.30;0.00;;;;;;;5.23;63.80;100691.84;4985684;28;20487;-70
2023/04/30 00:31:47;;;;;;;0.10;0.00;;;;;;;5.23;63.88;100702.22;4983876;28;20585;-69
2023/04/30 00:34:14;;;;;;;0.00;0.00;;;;;;;5.23;63.73;100702.22;4982431;28;20398;-69
2023/04/30 00:36:41;;;;;;;0.10;0.00;;;;;;;5.23;63.87;100707.38;4986960;28;20046;-69
2023/04/30 00:39:09;;;;;;;0.32;0.10;;;;;;;5.24;63.75;100703.97;4983926;28;20046;-69
2023/04/30 00:41:37;;;;;;;0.03;0.03;;;;;;;5.24;63.64;100703.97;4986098;28;20097;-68
2023/04/30 00:44:05;;;;;;;0.00;0.00;;;;;;;5.25;63.72;100706.53;4986358;28;20053;-69
2023/04/30 00:46:32;;;;;;;0.10;0.03;;;;;;;5.25;63.79;100716.03;4985665;28;20042;-70
2023/04/30 00:49:03;;;;;;;0.10;0.10;;;;;;;5.25;64.05;100711.72;4986015;28;20047;-70
2023/04/30 00:51:31;;;;;;;0.55;0.10;;;;;;;5.25;63.87;100708.28;4984271;28;20126;-69
2023/04/30 00:54:01;;;;;;;0.10;0.10;;;;;;;5.21;64.04;100714.28;4982487;28;20046;-70
2023/04/30 00:56:30;;;;;;;0.05;0.00;;;;;;;5.23;63.87;100716.00;4984938;28;20034;-70
2023/04/30 00:58:57;;;;;;;2.35;0.25;;;;;;;5.23;63.86;100718.59;4987231;28;20788;-69
2023/04/30 01:01:24;;;;;;;0.35;0.03;;;;;;;5.24;63.74;100727.28;4986339;28;20053;-70
2023/04/30 01:03:52;;;;;;;0.10;0.05;;;;;;;5.24;63.87;100720.34;4987150;28;20418;-69
2023/04/30 01:06:19;;;;;;;0.35;0.10;;;;;;;5.24;63.92;100725.53;4984288;28;20039;-69
2023/04/30 01:08:46;;;;;;;0.10;0.10;;;;;;;5.24;63.94;100725.53;4983720;28;20447;-70
2023/04/30 01:11:22;;;;;;;1.95;0.10;;;;;;;5.25;63.99;100729.00;4984877;28;20045;-69
2023/04/30 01:14:01;;;;;;;0.00;0.00;;;;;;;5.25;63.98;100740.19;4983894;28;20066;-69
2023/04/30 01:16:33;;;;;;;0.10;0.10;;;;;;;5.25;63.83;100737.63;4985875;28;20474;-70
2023/04/30 01:19:05;;;;;;;0.10;0.10;;;;;;;5.25;63.89;100740.19;4987030;28;20051;-69
2023/04/30 01:21:33;;;;;;;0.10;0.10;;;;;;;5.25;63.94;100740.19;4984847;28;20047;-69
2023/04/30 01:24:24;;;;;;;0.10;0.10;;;;;;;5.26;63.70;100741.06;4985078;28;20061;-69
2023/04/30 01:27:07;;;;;;;0.35;0.10;;;;;;;5.25;63.89;100747.13;4986798;28;20060;-70
2023/04/30 01:29:37;;;;;;;1.48;0.10;;;;;;;5.25;63.66;100749.69;4986094;28;20068;-70
2023/04/30 01:32:04;;;;;;;0.22;0.10;;;;;;;5.25;63.57;100757.47;4990207;28;20407;-69
2023/04/30 01:34:31;;;;;;;0.00;0.00;;;;;;;5.24;63.64;100754.03;4993803;28;20412;-70
2023/04/30 01:37:13;;;;;;;0.10;0.00;;;;;;;5.24;63.48;100760.94;4992934;28;20046;-69
2023/04/30 01:39:57;;;;;;;0.10;0.00;;;;;;;5.24;63.37;100759.19;4990153;28;20073;-69
2023/04/30 01:42:34;;;;;;;5.28;0.10;;;;;;;5.23;63.49;100759.19;4992672;28;20062;-70
2023/04/30 01:45:31;;;;;;;0.20;0.10;;;;;;;5.22;63.29;100760.06;4993386;28;20050;-68
2023/04/30 01:48:08;;;;;;;0.10;0.10;;;;;;;5.21;63.13;100766.97;4989226;28;20046;-69
2023/04/30 01:50:42;;;;;;;0.20;0.00;;;;;;;5.21;63.18;100766.06;4989677;28;20050;-70
2023/04/30 01:53:16;;;;;;;1.17;0.10;;;;;;;5.20;63.21;100762.63;4992836;28;20047;-69
2023/04/30 01:55:49;;;;;;;0.25;0.10;;;;;;;5.19;62.31;100760.91;4992714;28;20800;-69
2023/04/30 01:58:16;;;;;;;0.10;0.00;;;;;;;5.17;63.03;100766.06;4990894;28;20057;-70
2023/04/30 02:00:45;;;;;;;0.10;0.03;;;;;;;5.15;62.89;100767.81;4994084;28;20277;-69
2023/04/30 02:03:11;;;;;;;0.17;0.10;;;;;;;5.14;62.63;100771.25;4990727;28;20046;-69
2023/04/30 02:05:38;;;;;;;0.03;0.00;;;;;;;5.15;62.71;100777.28;4994503;28;20058;-69
2023/04/30 02:08:06;;;;;;;0.00;0.00;;;;;;;5.14;62.89;100770.38;4991563;28;20049;-69
2023/04/30 02:10:34;;;;;;;0.00;0.00;;;;;;;5.12;62.80;100772.97;4993919;28;20046;-69
2023/04/30 02:13:00;;;;;;;0.10;0.10;;;;;;;5.13;62.80;100781.59;4991434;28;20501;-69
2023/04/30 02:15:27;;;;;;;0.22;0.10;;;;;;;5.12;62.89;100778.16;4994001;28;20676;-70
2023/04/30 02:17:55;;;;;;;0.10;0.10;;;;;;;5.11;62.48;100784.19;4991105;28;20053;-70
2023/04/30 02:20:23;;;;;;;0.55;0.10;;;;;;;5.10;62.66;100797.13;4992990;28;20046;-70
2023/04/30 02:22:49;;;;;;;2.08;0.00;;;;;;;5.08;62.73;100791.94;4993572;28;20050;-69
2023/04/30 02:25:16;;;;;;;0.10;0.10;;;;;;;5.07;62.74;100789.34;4993280;28;20050;-69
2023/04/30 02:27:43;;;;;;;0.00;0.00;;;;;;;5.05;62.57;100786.75;4991970;28;20057;-70
2023/04/30 02:30:10;;;;;;;0.73;0.10;;;;;;;5.05;62.80;100791.91;4992451;28;20538;-69
2023/04/30 02:32:37;;;;;;;0.15;0.15;;;;;;;5.04;62.72;100791.91;4993482;28;20058;-69
2023/04/30 02:35:06;;;;;;;0.20;0.05;;;;;;;5.04;62.69;100785.03;4993263;28;20050;-72
2023/04/30 02:37:33;;;;;;;0.10;0.00;;;;;;;5.04;62.87;100792.78;4992037;28;20508;-71
2023/04/30 02:40:00;;;;;;;0.17;0.10;;;;;;;5.03;62.53;100793.63;4993083;28;20057;-72
2023/04/30 02:42:27;;;;;;;0.38;0.10;;;;;;;5.03;62.71;100803.97;4982376;28;20058;-71
2023/04/30 02:44:53;;;;;;;0.20;0.10;;;;;;;5.04;62.48;100802.25;4988904;28;20491;-72
2023/04/30 02:47:20;;;;;;;0.10;0.05;;;;;;;5.05;62.62;100804.00;4989405;28;20042;-71
2023/04/30 02:49:47;;;;;;;0.20;0.10;;;;;;;5.04;62.52;100802.25;4990238;28;20054;-72
2023/04/30 02:52:15;;;;;;;0.10;0.10;;;;;;;5.03;62.63;100814.34;4987297;28;20042;-71
2023/04/30 02:54:42;;;;;;;0.10;0.10;;;;;;;5.03;62.44;100813.47;4989979;28;20142;-71
2023/04/30 02:57:09;;;;;;;0.38;0.10;;;;;;;5.00;62.54;100819.50;4989979;28;20101;-71
2023/04/30 02:59:37;;;;;;;0.30;0.10;;;;;;;5.00;62.36;100823.81;4989305;28;20050;-71
2023/04/30 03:02:04;;;;;;;1.17;0.30;;;;;;;5.00;62.57;100827.28;4986579;28;20101;-71
2023/04/30 03:04:31;;;;;;;0.17;0.10;;;;;;;4.99;62.49;100830.72;4985272;28;20054;-72
2023/04/30 03:06:59;;;;;;;0.00;0.00;;;;;;;4.97;62.48;100833.28;4989835;28;20054;-71
2023/04/30 03:09:27;;;;;;;0.00;0.00;;;;;;;4.96;62.75;100835.91;4987656;28;20050;-71
2023/04/30 03:11:54;;;;;;;0.00;0.00;;;;;;;4.95;62.57;100831.56;4987547;28;20050;-72
2023/04/30 03:14:21;;;;;;;0.20;0.00;;;;;;;4.93;62.35;100838.47;4988066;28;20419;-72
2023/04/30 03:16:48;;;;;;;0.08;0.05;;;;;;;4.93;62.15;100838.47;4987922;28;20054;-71
2023/04/30 03:19:14;;;;;;;0.30;0.10;;;;;;;4.92;62.37;100847.97;4989175;28;20479;-71
2023/04/30 03:21:41;;;;;;;0.10;0.10;;;;;;;4.92;62.50;100849.66;4987378;28;20054;-71
2023/04/30 03:24:08;;;;;;;1.75;0.08;;;;;;;4.91;62.47;100861.75;4987513;28;20053;-71
2023/04/30 03:26:36;;;;;;;2.85;0.10;;;;;;;4.90;62.46;100860.03;4989459;28;20042;-71
2023/04/30 03:29:03;;;;;;;0.17;0.10;;;;;;;4.90;62.29;100862.59;4988281;28;20053;-70
2023/04/30 03:31:30;;;;;;;0.10;0.10;;;;;;;4.90;62.49;100864.34;4988526;28;20387;-71
2023/04/30 03:33:57;;;;;;;1.60;0.10;;;;;;;4.89;62.47;100867.75;4987167;28;20046;-71
2023/04/30 03:36:23;;;;;;;0.10;0.08;;;;;;;4.89;62.28;100865.16;4986758;28;20495;-71
2023/04/30 03:38:50;;;;;;;0.40;0.00;;;;;;;4.88;62.25;100866.03;4988886;28;20050;-71
2023/04/30 03:41:17;;;;;;;0.10;0.10;;;;;;;4.87;62.25;100869.50;4989029;28;20062;-71
2023/04/30 03:43:45;;;;;;;0.10;0.10;;;;;;;4.88;62.18;100876.41;4987670;28;20042;-71
2023/04/30 03:46:12;;;;;;;0.00;0.00;;;;;;;4.87;62.19;100879.84;4987621;28;20087;-72
2023/04/30 03:48:39;;;;;;;0.00;0.00;;;;;;;4.87;62.04;100879.84;4987909;28;20058;-71
2023/04/30 03:51:06;;;;;;;0.00;0.00;;;;;;;4.85;61.83;100879.81;4988027;28;20053;-71
2023/04/30 03:53:33;;;;;;;0.57;0.05;;;;;;;4.85;62.31;100881.56;4985585;28;20472;-71
2023/04/30 03:55:59;;;;;;;0.08;0.00;;;;;;;4.84;62.16;100884.97;4989085;28;20967;-71
2023/04/30 03:58:26;;;;;;;0.10;0.10;;;;;;;4.83;62.07;100889.28;4986887;28;20837;-71
2023/04/30 04:00:55;;;;;;;0.55;0.00;;;;;;;4.82;61.85;100899.66;4988745;28;20165;-71
2023/04/30 04:03:22;;;;;;;1.75;0.10;;;;;;;4.80;61.86;100898.75;4987710;28;20050;-72
2023/04/30 04:05:49;;;;;;;0.22;0.10;;;;;;;4.79;61.66;100904.81;4986837;28;20148;-71
2023/04/30 04:08:15;;;;;;;0.00;0.00;;;;;;;4.78;61.94;100908.22;4985871;28;20046;-71
2023/04/30 04:10:42;;;;;;;0.75;0.10;;;;;;;4.76;61.64;100905.66;4986773;28;20050;-72
2023/04/30 04:13:10;;;;;;;0.10;0.10;;;;;;;4.73;61.73;100898.72;4988075;28;20065;-71
2023/04/30 04:15:37;;;;;;;0.10;0.10;;;;;;;4.74;61.43;100904.75;4986355;28;20050;-71
2023/04/30 04:18:07;;;;;;;0.55;0.10;;;;;;;4.72;61.64;100911.63;4987773;28;21012;-71
2023/04/30 04:20:34;;;;;;;0.15;0.10;;;;;;;4.71;61.90;100915.94;4985483;28;20054;-71
2023/04/30 04:23:01;;;;;;;0.13;0.10;;;;;;;4.70;61.47;100913.38;4988738;28;20422;-71
2023/04/30 04:25:28;;;;;;;1.10;0.10;;;;;;;4.69;61.85;100912.47;4986638;28;20773;-72
2023/04/30 04:27:54;;;;;;;0.10;0.00;;;;;;;4.69;61.60;100917.66;4988441;28;20491;-72
2023/04/30 04:30:21;;;;;;;0.10;0.00;;;;;;;4.69;61.98;100917.66;4985675;28;20466;-72
2023/04/30 04:32:52;;;;;;;0.25;0.25;;;;;;;4.70;61.78;100919.41;4987827;28;20057;-71
2023/04/30 04:35:20;;;;;;;0.10;0.10;;;;;;;4.71;61.78;100931.47;4986920;28;20061;-71
2023/04/30 04:37:47;;;;;;;0.75;0.10;;;;;;;4.74;61.82;100931.50;4987838;28;20054;-71
2023/04/30 04:40:14;;;;;;;0.80;0.00;;;;;;;4.76;61.29;100934.13;4986772;28;20050;-71
2023/04/30 04:42:41;;;;;;;0.28;0.00;;;;;;;4.78;62.02;100936.69;4985417;28;20054;-72
2023/04/30 04:45:09;;;;;;;0.13;0.10;;;;;;;4.80;61.42;100942.75;4986249;28;20104;-71
2023/04/30 04:47:36;;;;;;;0.10;0.10;;;;;;;4.82;61.73;100933.28;4985496;28;20143;-71
2023/04/30 04:50:04;;;;;;;0.00;0.00;;;;;;;4.84;61.76;100936.75;4987136;28;20061;-72
2023/04/30 04:52:32;;;;;;;0.30;0.10;;;;;;;4.83;61.71;100932.44;4987496;28;20498;-71
2023/04/30 04:54:59;;;;;;;0.17;0.10;;;;;;;4.88;61.27;100933.34;4987288;28;20058;-71
2023/04/30 04:57:26;;;;;;;0.70;0.10;;;;;;;4.90;61.34;100942.00;4987250;28;20042;-72
2023/04/30 04:59:53;;;;;;;0.10;0.03;;;;;;;4.93;61.19;100942.00;4986975;28;20972;-71
2023/04/30 05:02:20;;;;;;;0.22;0.10;;;;;;;4.94;61.10;100949.78;4988314;28;20502;-72
2023/04/30 05:04:49;;;;;;;0.10;0.00;;;;;;;4.96;61.02;100942.03;4985014;28;20053;-72
2023/04/30 05:07:16;;;;;;;0.10;0.10;;;;;;;4.98;60.73;100950.69;4986891;28;20133;-71
2023/04/30 05:09:45;;;;;;;0.60;0.15;;;;;;;4.98;60.57;100940.31;4984000;28;20178;-71
2023/04/30 05:12:12;;;;;;;0.10;0.05;;;;;;;5.00;60.60;100953.25;4986107;28;20573;-71
2023/04/30 05:14:39;;;;;;;0.15;0.10;;;;;;;5.02;60.42;100954.16;4981334;28;20054;-72
2023/04/30 05:17:07;;;;;;;0.68;0.10;;;;;;;5.03;60.76;100959.31;4986661;28;20494;-71
2023/04/30 05:19:33;;;;;;;1.85;0.10;;;;;;;5.06;60.52;100953.31;4984849;28;20061;-71
2023/04/30 05:22:01;;;;;;;0.10;0.10;;;;;;;5.08;60.65;100960.22;4987635;28;20058;-71
2023/04/30 05:24:28;;;;;;;0.52;0.10;;;;;;;5.12;60.99;100968.88;4986059;28;20042;-71
2023/04/30 05:26:56;;;;;;;0.10;0.10;;;;;;;5.14;60.69;100968.03;4987556;28;20050;-72
2023/04/30 05:29:23;;;;;;;0.30;0.10;;;;;;;5.17;60.65;100973.22;4982775;28;20054;-71
2023/04/30 05:31:50;;;;;;;0.15;0.10;;;;;;;5.19;60.72;100973.25;4986692;28;20165;-71
2023/04/30 05:34:17;;;;;;;0.40;0.10;;;;;;;5.22;60.62;100975.00;4983953;28;20058;-71
2023/04/30 05:36:44;;;;;;;0.73;0.10;;;;;;;5.25;60.15;100981.06;4986847;28;20506;-72
2023/04/30 05:39:11;;;;;;;0.10;0.10;;;;;;;5.26;60.45;100977.59;4981768;28;20510;-71
2023/04/30 05:41:38;;;;;;;0.70;0.10;;;;;;;5.31;60.36;100988.00;4983817;28;20108;-71
2023/04/30 05:44:06;;;;;;;0.17;0.10;;;;;;;5.34;60.36;100990.63;4983932;28;20058;-71
2023/04/30 05:46:34;;;;;;;0.25;0.10;;;;;;;5.37;60.21;100995.81;4984956;28;20146;-72
2023/04/30 05:49:01;;;;;;;0.13;0.10;;;;;;;5.39;60.27;100996.69;4987666;28;20396;-71
2023/04/30 05:51:28;;;;;;;1.65;0.10;;;;;;;5.39;60.09;100999.28;4985552;28;20042;-72
2023/04/30 05:53:56;;;;;;;0.10;0.10;;;;;;;5.43;60.00;101001.03;4984845;28;20057;-72
2023/04/30 05:56:23;;;;;;;2.72;0.10;;;;;;;5.47;60.19;101001.94;4984891;28;20045;-71
2023/04/30 05:58:51;;;;;;;0.52;0.10;;;;;;;5.49;60.08;101006.25;4982437;28;20057;-71
2023/04/30 06:01:19;;;;;;;0.40;0.10;;;;;;;5.53;60.03;101013.19;4987284;28;20193;-71
2023/04/30 06:03:47;;;;;;;0.57;0.10;;;;;;;5.56;60.05;101013.22;4983770;28;20101;-71
2023/04/30 06:06:13;;;;;;;0.17;0.13;;;;;;;5.58;59.81;101006.31;4986833;28;20050;-71
2023/04/30 06:08:44;;;;;;;0.17;0.10;;;;;;;5.61;59.88;101005.47;4984291;28;20046;-70
2023/04/30 06:11:11;;;;;;;0.17;0.10;;;;;;;5.63;59.75;101009.81;4987532;28;20449;-71
2023/04/30 06:13:39;;;;;;;0.20;0.10;;;;;;;5.66;59.80;101008.06;4984150;28;20573;-70
2023/04/30 06:16:07;;;;;;;0.10;0.10;;;;;;;5.67;59.80;101017.59;4985596;28;20050;-71
2023/04/30 06:18:35;;;;;;;0.52;0.20;;;;;;;5.70;59.42;101022.81;4989023;28;20839;-71
2023/04/30 06:21:02;;;;;;;0.25;0.10;;;;;;;5.71;59.43;101022.78;4988563;28;20050;-71
2023/04/30 06:23:29;;;;;;;0.15;0.05;;;;;;;5.73;59.51;101025.41;4989765;28;20133;-70
2023/04/30 06:25:56;;;;;;;1.48;0.10;;;;;;;5.73;59.41;101025.41;4987072;28;20562;-71
2023/04/30 06:28:22;;;;;;;1.00;0.10;;;;;;;5.74;59.42;101030.56;4989811;28;20421;-71
2023/04/30 06:30:50;;;;;;;0.10;0.10;;;;;;;5.75;59.41;101032.34;4990566;28;20530;-71
2023/04/30 06:33:17;;;;;;;0.10;0.10;;;;;;;5.76;59.32;101034.06;4989170;28;20072;-71
2023/04/30 06:35:46;;;;;;;0.15;0.00;;;;;;;5.78;59.60;101039.25;4986396;28;20049;-71
2023/04/30 06:38:13;;;;;;;0.10;0.10;;;;;;;5.81;59.68;101039.28;4988833;28;20470;-70
2023/04/30 06:40:40;;;;;;;2.45;0.20;;;;;;;5.82;59.61;101039.28;4989016;28;20054;-70
2023/04/30 06:43:07;;;;;;;1.23;0.13;;;;;;;5.84;59.64;101042.75;4990012;28;20046;-71
2023/04/30 06:45:34;;;;;;;0.43;0.10;;;;;;;5.86;59.53;101053.09;4987016;28;20053;-70
2023/04/30 06:48:01;;;;;;;0.47;0.47;;;;;;;5.90;59.43;101054.88;4989897;28;20053;-70
2023/04/30 06:50:28;;;;;;;0.40;0.15;;;;;;;5.92;59.23;101052.28;4989439;28;20050;-71
2023/04/30 06:52:56;;;;;;;0.57;0.10;;;;;;;5.96;59.37;101059.25;4988812;28;20042;-70
2023/04/30 06:55:23;;;;;;;0.45;0.15;;;;;;;5.99;59.38;101065.31;4989183;28;20046;-70
2023/04/30 06:57:50;;;;;;;1.75;0.20;;;;;;;6.02;59.49;101062.75;4988368;28;20057;-72
2023/04/30 07:00:17;;;;;;;0.77;0.10;;;;;;;6.07;59.26;101068.81;4987631;28;20046;-71
2023/04/30 07:02:46;;;;;;;1.30;0.20;;;;;;;6.11;59.20;101067.09;4989135;28;20427;-71
2023/04/30 07:05:13;;;;;;;0.13;0.10;;;;;;;6.16;59.41;101069.72;4986251;28;20050;-71
2023/04/30 07:07:40;;;;;;;0.10;0.10;;;;;;;6.20;58.98;101063.66;4989038;28;20054;-71
2023/04/30 07:10:09;;;;;;;0.20;0.15;;;;;;;6.26;59.13;101074.06;4988119;28;20053;-72
2023/04/30 07:12:36;;;;;;;2.72;0.38;;;;;;;6.32;59.11;101071.53;4987228;28;21179;-71
2023/04/30 07:15:04;;;;;;;1.75;0.10;;;;;;;6.37;58.81;101080.16;4989087;28;20050;-71
2023/04/30 07:17:31;;;;;;;0.10;0.10;;;;;;;6.42;58.88;101081.06;4986335;28;20050;-71
2023/04/30 07:19:58;;;;;;;5.00;0.10;;;;;;;6.49;59.15;101077.63;4990641;28;20388;-71
2023/04/30 07:22:25;;;;;;;0.10;0.10;;;;;;;6.57;59.02;101079.38;4984200;28;20050;-72
2023/04/30 07:24:52;;;;;;;0.25;0.20;;;;;;;6.63;58.65;101092.34;4985011;28;20054;-71
2023/04/30 07:27:20;;;;;;;0.20;0.20;;;;;;;6.68;58.41;101093.25;4988187;28;20077;-71
2023/04/30 07:29:47;;;;;;;0.10;0.10;;;;;;;6.73;58.83;101088.94;4988058;28;20403;-71
2023/04/30 07:32:15;;;;;;;0.32;0.10;;;;;;;6.79;58.44;101094.13;4986378;28;20054;-71
2023/04/30 07:34:42;;;;;;;0.73;0.20;;;;;;;6.82;58.39;101094.16;4984694;28;20070;-72
2023/04/30 07:37:09;;;;;;;2.15;0.30;;;;;;;6.87;57.82;101096.75;4988833;28;20056;-71
2023/04/30 07:39:36;;;;;;;0.70;0.10;;;;;;;6.90;57.89;101100.22;4986411;28;20054;-71
2023/04/30 07:42:03;;;;;;;1.95;0.20;;;;;;;6.92;57.74;101102.84;4989773;28;20069;-71
2023/04/30 07:44:31;;;;;;;0.70;0.20;;;;;;;6.94;57.49;101101.97;4987488;28;20506;-71
2023/04/30 07:46:58;;;;;;;0.30;0.17;;;;;;;6.93;57.67;101105.41;4989124;28;20046;-71
2023/04/30 07:49:25;;;;;;;0.95;0.10;;;;;;;6.98;57.71;101108.91;4988746;28;20050;-71
2023/04/30 07:51:52;;;;;;;0.20;0.10;;;;;;;7.01;57.47;101123.63;4987851;28;20486;-71
2023/04/30 07:54:20;;;;;;;0.45;0.10;;;;;;;7.02;57.69;101124.50;4989272;28;20046;-71
2023/04/30 07:56:47;;;;;;;1.30;0.20;;;;;;;7.03;57.30;101134.00;4986531;28;20137;-71
2023/04/30 07:59:14;;;;;;;0.45;0.10;;;;;;;7.04;57.68;101134.03;4988216;28;20664;-71
2023/04/30 08:01:43;;;;;;;1.63;0.10;;;;;;;7.06;57.71;101137.50;4988271;28;20153;-71
2023/04/30 08:04:10;;;;;;;1.67;0.17;;;;;;;7.07;57.86;101138.34;4978666;28;20498;-71
2023/04/30 08:06:37;;;;;;;0.20;0.20;;;;;;;7.08;57.66;101151.31;4982531;28;20499;-72
2023/04/30 08:09:04;;;;;;;0.50;0.10;;;;;;;7.10;57.51;101151.34;4983527;28;20526;-72
2023/04/30 08:11:31;;;;;;;1.05;0.20;;;;;;;7.12;57.44;101147.88;4983472;28;20057;-72
2023/04/30 08:13:58;;;;;;;0.25;0.20;;;;;;;7.15;57.52;101145.28;4984847;28;20529;-71
2023/04/30 08:16:25;;;;;;;9.52;0.43;;;;;;;7.18;57.55;101153.09;4980921;28;20042;-71
2023/04/30 08:18:53;;;;;;;3.25;0.47;;;;;;;7.20;57.56;101153.09;4984178;28;20054;-72
2023/04/30 08:21:20;;;;;;;2.75;0.60;;;;;;;7.23;57.58;101153.09;4963433;28;20050;-72
2023/04/30 08:23:47;;;;;;;2.17;0.73;;;;;;;7.26;57.34;101160.91;4984690;28;20054;-71
2023/04/30 08:26:13;;;;;;;2.05;0.40;;;;;;;7.30;57.36;101161.78;4984834;28;20053;-71
2023/04/30 08:28:40;;;;;;;11.85;3.88;;;;;;;7.33;57.71;101170.44;4985769;28;20046;-71
2023/04/30 08:31:07;;;;;;;6.03;0.82;;;;;;;7.36;57.50;101173.03;4983965;28;20493;-72
2023/04/30 08:33:34;;;;;;;1.08;0.50;;;;;;;7.41;57.49;101186.03;4985847;28;20049;-72
2023/04/30 08:36:02;;;;;;;1.75;0.50;;;;;;;7.44;57.28;101186.03;4984529;28;20407;-73
2023/04/30 08:38:29;;;;;;;4.22;0.40;;;;;;;7.47;57.17;101196.44;4984094;28;20419;-72
2023/04/30 08:41:05;;;;;;;2.63;0.30;;;;;;;7.50;56.97;101195.56;4984858;28;20050;-71
2023/04/30 08:43:34;;;;;;;0.80;0.40;;;;;;;7.53;57.18;101195.56;4984786;28;20057;-72
2023/04/30 08:46:02;;;;;;;2.47;0.30;;;;;;;7.56;56.93;101200.78;4984256;28;20050;-72
2023/04/30 08:48:30;;;;;;;0.57;0.20;;;;;;;7.59;56.44;101206.84;4980644;28;20499;-72
2023/04/30 08:51:00;;;;;;;0.50;0.30;;;;;;;7.63;56.62;101215.53;4985415;28;20057;-72
2023/04/30 08:53:28;;;;;;;1.15;0.30;;;;;;;7.64;56.30;101215.50;4985266;28;20042;-72
2023/04/30 08:55:55;;;;;;;2.15;0.70;;;;;;;7.67;55.83;101214.66;4985076;28;20051;-72
2023/04/30 08:58:22;;;;;;;1.13;0.30;;;;;;;7.68;56.24;101221.56;4984985;28;20046;-71
2023/04/30 09:00:49;;;;;;;2.30;0.30;;;;;;;7.69;56.12;101223.31;4986856;28;20043;-72
2023/04/30 09:03:15;;;;;;;0.88;0.40;;;;;;;7.71;56.21;101225.91;4986155;28;20098;-72
2023/04/30 09:05:42;;;;;;;5.35;0.55;;;;;;;7.73;56.29;101224.19;4982252;28;20058;-72
2023/04/30 09:08:09;;;;;;;0.93;0.50;;;;;;;7.77;56.32;101224.19;4986787;28;20061;-73
2023/04/30 09:10:37;;;;;;;3.90;0.47;;;;;;;7.82;56.46;101225.03;4984872;28;20069;-72
2023/04/30 09:13:06;;;;;;;2.58;0.30;;;;;;;7.87;56.40;101228.53;4985703;28;20065;-72
2023/04/30 09:15:34;;;;;;;1.30;0.20;;;;;;;7.97;56.16;101231.09;4982369;28;20053;-72
2023/04/30 09:18:13;;;;;;;0.40;0.28;;;;;;;8.06;56.12;101228.53;4985109;28;20061;-72
2023/04/30 09:20:55;;;;;;;9.07;6.70;;;;;;;8.16;56.26;101230.22;4983392;28;20050;-72
2023/04/30 09:23:22;;;;;;;28.63;21.77;;;;;;;8.25;55.32;101227.63;4984921;28;20549;-71
2023/04/30 09:25:50;;;;;;;7.60;6.38;;;;;;;8.33;55.61;101233.66;4984247;28;20046;-72
2023/04/30 09:28:22;;;;;;;6.30;5.55;;;;;;;8.41;55.65;101235.44;4985865;28;20051;-72
2023/04/30 09:30:49;;;;;;;1.35;0.63;;;;;;;8.51;55.29;101237.16;4982125;28;20418;-72
2023/04/30 09:33:17;;;;;;;1.77;1.13;;;;;;;8.56;54.72;101236.25;4984439;28;20049;-72
2023/04/30 09:35:44;;;;;;;3.60;2.55;;;;;;;8.62;54.84;101245.78;4980793;28;20043;-72
2023/04/30 09:38:26;;;;;;;4.10;0.50;;;;;;;8.69;54.23;101255.34;4986584;28;20587;-72
2023/04/30 09:40:55;;;;;;;1.50;0.60;;;;;;;8.74;54.39;101248.38;4986153;28;20088;-72
2023/04/30 09:43:22;;;;;;;0.50;0.30;;;;;;;8.78;54.00;101252.69;4984196;28;20084;-71
2023/04/30 09:45:50;;;;;;;0.63;0.38;;;;;;;8.83;54.16;101247.47;4985384;28;20050;-71
2023/04/30 09:48:18;;;;;;;5.20;4.18;;;;;;;8.87;53.90;101251.78;4983383;28;20049;-71
2023/04/30 09:50:46;;;;;;;2.63;0.50;;;;;;;8.97;53.61;101256.09;4982504;28;20046;-71
2023/04/30 09:53:13;;;;;;;2.78;0.77;;;;;;;9.07;53.45;101261.25;4986623;28;20516;-71
2023/04/30 09:55:44;;;;;;;3.08;2.08;;;;;;;9.12;53.36;101257.75;4987941;28;20081;-71
2023/04/30 09:58:13;;;;;;;5.40;0.90;;;;;;;9.17;53.17;101265.56;4989401;28;20046;-71
2023/04/30 10:00:40;;;;;;;1.63;0.50;;;;;;;9.24;52.95;101262.91;4987239;28;20533;-71
2023/04/30 10:03:09;;;;;;;3.83;0.40;;;;;;;9.31;52.69;101265.50;4987984;28;20072;-71
2023/04/30 10:05:39;;;;;;;1.42;0.30;;;;;;;9.40;52.87;101265.44;4987542;28;20042;-71
2023/04/30 10:08:10;;;;;;;2.15;1.30;;;;;;;9.50;52.29;101264.50;4986100;28;20092;-71
2023/04/30 10:10:39;;;;;;;4.65;2.35;;;;;;;9.57;52.43;101266.22;4988173;28;20105;-71
2023/04/30 10:13:14;;;;;;;3.00;0.60;;;;;;;9.65;52.16;101261.81;4988036;28;20069;-71
2023/04/30 10:15:47;;;;;;;5.07;3.45;;;;;;;9.72;51.40;101275.66;4988614;28;20054;-72
2023/04/30 10:18:19;;;;;;;1.27;0.80;;;;;;;9.78;51.92;101266.94;4987676;28;20046;-72
2023/04/30 10:20:48;;;;;;;3.30;3.00;;;;;;;9.81;51.44;101278.19;4986764;28;20422;-73
2023/04/30 10:23:15;;;;;;;1.23;0.50;;;;;;;9.84;50.94;101274.72;4987777;28;20569;-72
2023/04/30 10:25:44;;;;;;;0.70;0.50;;;;;;;9.87;51.33;101272.06;4984302;28;20058;-72
2023/04/30 10:28:12;;;;;;;13.50;4.72;;;;;;;9.91;50.82;101263.38;4988009;28;20054;-72
2023/04/30 10:30:41;;;;;;;1.70;0.50;;;;;;;9.95;49.64;101267.66;4983032;28;20553;-71
2023/04/30 10:33:19;;;;;;;0.95;0.30;;;;;;;10.01;49.87;101280.66;4988176;28;20046;-72
2023/04/30 10:35:51;;;;;;;2.25;0.80;;;;;;;10.04;49.55;101267.59;4985510;28;20077;-72
2023/04/30 10:38:23;;;;;;;0.30;0.20;;;;;;;10.06;49.47;101271.06;4988833;28;20050;-72
2023/04/30 10:40:50;;;;;;;2.55;0.40;;;;;;;10.10;49.41;101271.88;4988158;28;20050;-72
2023/04/30 10:43:20;;;;;;;1.60;0.73;;;;;;;10.14;49.70;101271.84;4985711;28;20523;-72
2023/04/30 10:45:48;;;;;;;2.70;0.20;;;;;;;10.21;49.50;101274.41;4987563;28;20054;-72
2023/04/30 10:48:22;;;;;;;1.60;0.43;;;;;;;10.27;49.05;101284.81;4984182;28;20101;-72
2023/04/30 10:50:51;;;;;;;0.30;0.20;;;;;;;10.29;48.46;101272.63;4987707;28;20119;-72
2023/04/30 10:53:19;;;;;;;0.90;0.50;;;;;;;10.31;48.46;101283.94;4987042;28;20042;-72
2023/04/30 10:55:49;;;;;;;0.77;0.40;;;;;;;10.34;48.32;101289.13;4986927;28;20050;-73
2023/04/30 10:58:29;;;;;;;0.40;0.30;;;;;;;10.35;48.26;101283.88;4984500;28;20112;-72
2023/04/30 11:01:04;;;;;;;1.70;0.50;;;;;;;10.37;47.80;101283.88;4986235;28;20070;-72
2023/04/30 11:03:32;;;;;;;1.38;0.55;;;;;;;10.38;47.39;101284.72;4984211;28;20128;-72
2023/04/30 11:06:02;;;;;;;1.00;0.30;;;;;;;10.39;47.67;101279.50;4982015;28;20108;-72
2023/04/30 11:08:34;;;;;;;0.98;0.80;;;;;;;10.43;47.45;101286.44;4987575;28;20078;-72
2023/04/30 11:11:02;;;;;;;1.63;1.00;;;;;;;10.48;47.35;101283.78;4985447;28;20463;-72
2023/04/30 11:13:39;;;;;;;3.08;2.15;;;;;;;10.52;47.11;101275.88;4984300;28;20054;-72
2023/04/30 11:16:06;;;;;;;2.47;1.98;;;;;;;10.55;46.54;101269.75;4949151;28;21844;-72
2023/04/30 11:18:33;;;;;;;5.28;0.70;;;;;;;10.62;46.77;101287.13;4988698;28;20050;-72
2023/04/30 11:21:02;;;;;;;1.45;0.43;;;;;;;10.67;45.63;101287.06;4981887;28;20137;-73
2023/04/30 11:23:29;;;;;;;3.35;0.70;;;;;;;10.70;45.74;101287.00;4984596;28;20046;-72
2023/04/30 11:25:58;;;;;;;0.60;0.40;;;;;;;10.73;45.80;101290.47;4981845;28;20058;-71
2023/04/30 11:28:26;;;;;;;1.95;0.52;;;;;;;10.77;45.48;101318.28;4981714;28;20064;-71
2023/04/30 11:30:56;;;;;;;2.40;0.20;;;;;;;10.80;44.64;101286.03;4981822;28;20133;-72
2023/04/30 11:33:23;;;;;;;0.80;0.50;;;;;;;10.80;44.75;101299.97;4980691;28;20042;-73
2023/04/30 11:35:51;;;;;;;1.15;0.40;;;;;;;10.81;45.28;101308.66;4984571;28;20046;-72
2023/04/30 11:38:21;;;;;;;2.70;1.17;;;;;;;10.84;45.23;101313.84;4983934;28;20084;-71